Time;durP1;ratioP1;P1;durP2;ratioP2;P2;SDS_P1;SDS_P2;PMS_P1;PMS_P2;Temp;Humidity;BMP_temperature;BMP_pressure;BME280_temperature;BME280_humidity;BME280_pressure;Samples;Min_cycle;Max_cycle;Signal;HPM_P1;HPM_P2
2023/08/19 00:00:26;;;;;;;15.95;7.63;;;22.80;99.90;;;;;;5028353;28;20091;-62
2023/08/19 00:02:51;;;;;;;15.13;7.38;;;22.80;99.90;;;;;;5027508;28;20445;-62
2023/08/19 00:05:18;;;;;;;13.00;7.35;;;22.70;99.90;;;;;;5023873;28;20091;-61
2023/08/19 00:07:44;;;;;;;10.75;7.05;;;22.70;99.90;;;;;;5026310;28;20109;-62
2023/08/19 00:10:09;;;;;;;12.57;8.05;;;22.70;99.90;;;;;;5029988;28;20044;-62
2023/08/19 00:12:35;;;;;;;14.88;7.43;;;22.60;99.90;;;;;;5026874;28;20556;-61
2023/08/19 00:15:01;;;;;;;13.15;6.97;;;22.60;99.90;;;;;;5029895;28;20033;-62
2023/08/19 00:17:26;;;;;;;14.05;7.38;;;22.60;99.90;;;;;;5027515;28;20108;-61
2023/08/19 00:19:52;;;;;;;13.13;7.18;;;22.50;99.90;;;;;;5025354;28;20021;-61
2023/08/19 00:22:18;;;;;;;13.18;7.13;;;22.40;99.90;;;;;;5025260;28;21211;-61
2023/08/19 00:24:43;;;;;;;18.90;8.05;;;22.40;99.90;;;;;;5030281;28;20397;-61
2023/08/19 00:27:09;;;;;;;12.43;7.40;;;22.30;99.90;;;;;;5024895;28;20033;-61
2023/08/19 00:29:35;;;;;;;17.40;7.13;;;22.30;99.90;;;;;;5021597;28;20032;-61
2023/08/19 00:32:01;;;;;;;14.85;7.72;;;22.20;99.90;;;;;;5029587;28;20478;-61
2023/08/19 00:34:26;;;;;;;12.15;7.50;;;22.20;99.90;;;;;;5029991;28;20153;-62
2023/08/19 00:36:54;;;;;;;11.98;7.55;;;22.20;99.90;;;;;;5026360;28;20036;-61
2023/08/19 00:39:19;;;;;;;14.90;7.82;;;22.10;99.90;;;;;;5028611;28;20021;-62
2023/08/19 00:41:45;;;;;;;19.73;8.07;;;22.10;99.90;;;;;;5028337;28;20037;-62
2023/08/19 00:44:11;;;;;;;15.48;7.53;;;22.00;99.90;;;;;;5025812;28;20029;-62
2023/08/19 00:46:36;;;;;;;13.20;7.18;;;22.00;99.90;;;;;;5027593;28;20485;-62
2023/08/19 00:49:02;;;;;;;16.10;7.28;;;22.00;99.90;;;;;;5021748;28;20025;-62
2023/08/19 00:51:28;;;;;;;13.10;6.88;;;21.90;99.90;;;;;;5025715;28;20483;-62
2023/08/19 00:53:53;;;;;;;14.75;7.88;;;21.90;99.90;;;;;;5029833;28;20187;-61
2023/08/19 00:56:19;;;;;;;17.25;7.72;;;21.90;99.90;;;;;;5029278;28;20029;-62
2023/08/19 00:58:45;;;;;;;16.10;7.38;;;21.80;99.90;;;;;;5029719;28;20144;-62
2023/08/19 01:01:11;;;;;;;15.25;7.63;;;21.80;99.90;;;;;;5027635;28;20387;-62
2023/08/19 01:03:37;;;;;;;13.82;6.32;;;21.80;99.90;;;;;;5027065;28;20108;-61
2023/08/19 01:06:16;;;;;;;11.95;7.40;;;21.80;99.90;;;;;;5027862;28;20025;-61
2023/08/19 01:09:13;;;;;;;15.30;7.65;;;21.70;99.90;;;;;;5028614;28;20028;-62
2023/08/19 01:12:02;;;;;;;21.27;7.13;;;21.70;99.90;;;;;;5024414;28;20037;-62
2023/08/19 01:14:58;;;;;;;17.58;7.47;;;21.70;99.90;;;;;;5028923;28;20013;-62
2023/08/19 01:17:27;;;;;;;17.08;7.72;;;21.70;99.90;;;;;;5028183;28;20030;-61
2023/08/19 01:19:54;;;;;;;19.98;7.38;;;21.60;99.90;;;;;;5028942;28;20080;-61
2023/08/19 01:22:37;;;;;;;16.27;7.38;;;21.60;99.90;;;;;;5027524;28;20052;-62
2023/08/19 01:25:04;;;;;;;13.65;6.40;;;21.60;99.90;;;;;;5029430;28;20036;-61
2023/08/19 01:27:30;;;;;;;15.88;6.47;;;21.60;99.90;;;;;;5027579;28;20036;-61
2023/08/19 01:29:56;;;;;;;13.82;6.95;;;21.60;99.90;;;;;;5028140;28;20038;-62
2023/08/19 01:32:23;;;;;;;18.80;7.15;;;21.60;99.90;;;;;;5030369;28;20048;-62
2023/08/19 01:34:50;;;;;;;13.55;6.68;;;21.60;99.90;;;;;;5035401;28;20029;-62
2023/08/19 01:37:26;;;;;;;12.43;6.95;;;21.60;99.90;;;;;;5034304;28;20170;-61
2023/08/19 01:39:55;;;;;;;12.50;7.53;;;21.60;99.90;;;;;;5029562;28;20029;-62
2023/08/19 01:42:21;;;;;;;16.70;6.88;;;21.60;99.90;;;;;;5030260;28;20072;-62
2023/08/19 01:44:48;;;;;;;12.63;6.63;;;21.60;99.90;;;;;;5025286;28;20022;-62
2023/08/19 01:47:16;;;;;;;11.70;6.95;;;21.60;99.90;;;;;;5022383;28;20018;-61
2023/08/19 01:49:45;;;;;;;9.80;6.40;;;21.60;99.90;;;;;;5024846;28;20029;-61
2023/08/19 01:52:13;;;;;;;9.23;6.30;;;21.60;99.90;;;;;;5028867;28;20028;-61
2023/08/19 01:54:39;;;;;;;11.68;7.05;;;21.60;99.90;;;;;;5027381;28;20040;-62
2023/08/19 01:57:06;;;;;;;15.75;6.07;;;21.60;99.90;;;;;;5025703;28;20029;-61
2023/08/19 01:59:32;;;;;;;9.38;6.13;;;21.60;99.90;;;;;;5029065;28;20032;-61
2023/08/19 02:01:58;;;;;;;11.82;7.10;;;21.70;99.90;;;;;;5027677;28;20021;-62
2023/08/19 02:04:23;;;;;;;13.60;6.53;;;21.60;99.90;;;;;;5025715;28;20040;-62
2023/08/19 02:06:49;;;;;;;10.30;5.63;;;21.60;99.90;;;;;;5028147;28;20033;-61
2023/08/19 02:09:14;;;;;;;13.90;6.50;;;21.60;99.90;;;;;;5027754;28;20025;-62
2023/08/19 02:11:40;;;;;;;15.65;6.18;;;21.60;99.90;;;;;;5027685;28;20033;-61
2023/08/19 02:14:05;;;;;;;8.13;6.47;;;21.70;99.90;;;;;;5026508;28;20093;-62
2023/08/19 02:16:31;;;;;;;11.60;6.47;;;21.70;99.90;;;;;;5026309;28;20029;-62
2023/08/19 02:19:00;;;;;;;13.23;6.28;;;21.60;99.90;;;;;;5026928;28;20068;-61
2023/08/19 02:21:25;;;;;;;12.32;6.30;;;21.60;99.90;;;;;;5026847;28;20061;-61
2023/08/19 02:23:51;;;;;;;13.95;6.53;;;21.70;99.90;;;;;;5025224;28;20068;-62
2023/08/19 02:26:17;;;;;;;18.17;6.22;;;21.60;99.90;;;;;;5028189;28;20029;-61
2023/08/19 02:28:43;;;;;;;10.18;5.95;;;21.60;99.90;;;;;;5025399;28;20125;-60
2023/08/19 02:31:08;;;;;;;12.38;5.75;;;21.60;99.90;;;;;;5024360;28;20976;-61
2023/08/19 02:33:35;;;;;;;14.35;6.13;;;21.60;99.90;;;;;;5034911;28;20022;-62
2023/08/19 02:36:01;;;;;;;10.65;5.82;;;21.60;99.90;;;;;;5027041;28;20041;-61
2023/08/19 02:38:26;;;;;;;13.05;6.18;;;21.60;99.90;;;;;;5028426;28;20025;-61
2023/08/19 02:40:52;;;;;;;14.13;6.07;;;21.60;99.90;;;;;;5027128;28;20416;-62
2023/08/19 02:43:18;;;;;;;18.02;5.88;;;21.60;99.90;;;;;;5025033;28;20041;-61
2023/08/19 02:45:45;;;;;;;10.43;6.40;;;21.60;99.90;;;;;;5026561;28;20530;-61
2023/08/19 02:48:11;;;;;;;10.80;6.22;;;21.60;99.90;;;;;;5028550;28;20033;-61
2023/08/19 02:50:36;;;;;;;17.52;6.00;;;21.70;99.90;;;;;;5027851;28;20409;-61
2023/08/19 02:53:02;;;;;;;19.05;6.57;;;21.60;99.90;;;;;;5027581;28;20403;-60
2023/08/19 02:55:27;;;;;;;11.77;5.75;;;21.60;99.90;;;;;;5027291;28;20030;-60
2023/08/19 02:57:53;;;;;;;10.00;6.22;;;21.60;99.90;;;;;;5024470;28;20036;-61
2023/08/19 03:00:19;;;;;;;13.80;6.57;;;21.60;99.90;;;;;;5023738;28;20083;-61
2023/08/19 03:02:48;;;;;;;15.70;5.70;;;21.60;99.90;;;;;;5025242;28;20026;-61
2023/08/19 03:05:13;;;;;;;9.50;5.28;;;21.60;99.90;;;;;;5028340;28;20640;-61
2023/08/19 03:07:39;;;;;;;13.13;6.38;;;21.60;99.90;;;;;;5027512;28;20041;-61
2023/08/19 03:10:06;;;;;;;13.75;6.47;;;21.60;99.90;;;;;;5024563;28;20032;-61
2023/08/19 03:12:32;;;;;;;11.43;6.28;;;21.50;99.90;;;;;;5029230;28;20040;-60
2023/08/19 03:14:58;;;;;;;9.57;5.85;;;21.50;99.90;;;;;;5027889;28;20018;-60
2023/08/19 03:17:24;;;;;;;8.50;5.55;;;21.60;99.90;;;;;;5029968;28;20035;-62
2023/08/19 03:19:50;;;;;;;16.27;5.93;;;21.60;99.90;;;;;;5027988;28;20029;-63
2023/08/19 03:22:16;;;;;;;12.13;6.97;;;21.60;99.90;;;;;;5032004;28;20893;-61
2023/08/19 03:24:43;;;;;;;11.05;5.90;;;21.50;99.90;;;;;;5030115;28;20021;-60
2023/08/19 03:27:08;;;;;;;9.98;5.57;;;21.60;99.90;;;;;;5031098;28;20025;-61
2023/08/19 03:29:34;;;;;;;11.75;6.07;;;21.60;99.90;;;;;;5029435;28;20030;-60
2023/08/19 03:32:00;;;;;;;14.70;6.10;;;21.60;99.90;;;;;;5028017;28;20474;-61
2023/08/19 03:34:26;;;;;;;20.42;6.50;;;21.60;99.90;;;;;;5027471;28;20057;-60
2023/08/19 03:36:51;;;;;;;10.18;6.05;;;21.60;99.90;;;;;;5029678;28;20443;-61
2023/08/19 03:39:17;;;;;;;10.95;5.75;;;21.60;99.90;;;;;;5027664;28;20089;-60
2023/08/19 03:41:42;;;;;;;11.13;5.70;;;21.60;99.90;;;;;;5031308;28;20069;-61
2023/08/19 03:44:08;;;;;;;9.77;5.70;;;21.60;99.90;;;;;;5027956;28;20037;-61
2023/08/19 03:46:33;;;;;;;10.10;5.80;;;21.70;99.90;;;;;;5025493;28;20030;-61
2023/08/19 03:48:59;;;;;;;8.70;4.70;;;21.70;99.90;;;;;;5027952;28;20025;-61
2023/08/19 03:51:24;;;;;;;9.15;4.75;;;21.70;99.90;;;;;;5029786;28;20049;-61
2023/08/19 03:53:50;;;;;;;7.15;5.30;;;21.70;99.90;;;;;;5026103;28;20049;-60
2023/08/19 03:56:15;;;;;;;9.15;5.00;;;21.70;99.90;;;;;;5024984;28;20057;-61
2023/08/19 03:58:41;;;;;;;10.70;5.93;;;21.80;99.90;;;;;;5030205;28;20029;-61
2023/08/19 04:01:07;;;;;;;9.52;5.15;;;21.80;99.90;;;;;;5025579;28;20117;-61
2023/08/19 04:03:33;;;;;;;10.43;5.25;;;21.80;99.90;;;;;;5028933;28;20044;-61
2023/08/19 04:05:59;;;;;;;10.32;5.45;;;21.80;99.90;;;;;;5028446;28;20032;-61
2023/08/19 04:08:25;;;;;;;10.95;5.47;;;21.80;99.90;;;;;;5027025;28;20033;-61
2023/08/19 04:10:51;;;;;;;10.15;5.18;;;21.80;99.90;;;;;;5032416;28;20033;-61
2023/08/19 04:13:17;;;;;;;17.67;5.40;;;21.80;99.90;;;;;;5029125;28;20018;-61
2023/08/19 04:15:43;;;;;;;14.68;5.13;;;21.80;99.90;;;;;;5028023;28;21191;-61
2023/08/19 04:18:10;;;;;;;7.05;4.65;;;21.80;99.90;;;;;;5028947;28;20029;-61
2023/08/19 04:20:38;;;;;;;10.35;5.10;;;21.80;99.90;;;;;;5029347;28;20112;-61
2023/08/19 04:23:04;;;;;;;8.70;4.88;;;21.70;99.90;;;;;;5025520;28;20045;-61
2023/08/19 04:25:30;;;;;;;9.23;5.20;;;21.80;99.90;;;;;;5025957;28;20032;-62
2023/08/19 04:27:55;;;;;;;9.85;4.32;;;21.70;99.90;;;;;;5030883;28;20036;-61
2023/08/19 04:30:21;;;;;;;12.48;4.55;;;21.70;99.90;;;;;;5024269;28;20041;-61
2023/08/19 04:32:46;;;;;;;10.15;5.15;;;21.70;99.90;;;;;;5029372;28;20104;-60
2023/08/19 04:35:12;;;;;;;12.02;5.68;;;21.70;99.90;;;;;;5026214;28;20021;-61
2023/08/19 04:37:38;;;;;;;10.07;4.88;;;21.60;99.90;;;;;;5028621;28;20032;-61
2023/08/19 04:40:09;;;;;;;11.80;5.10;;;21.60;99.90;;;;;;5031287;28;20034;-61
2023/08/19 04:42:35;;;;;;;9.07;4.85;;;21.60;99.90;;;;;;5038143;28;20425;-61
2023/08/19 04:45:01;;;;;;;10.05;4.57;;;21.60;99.90;;;;;;5028471;28;20905;-61
2023/08/19 04:47:26;;;;;;;12.68;4.72;;;21.50;99.90;;;;;;5027418;28;20117;-60
2023/08/19 04:49:52;;;;;;;14.30;5.03;;;21.60;99.90;;;;;;5029481;28;20033;-62
2023/08/19 04:52:17;;;;;;;16.63;4.85;;;21.50;99.90;;;;;;5029455;28;20040;-62
2023/08/19 04:54:43;;;;;;;12.93;4.32;;;21.50;99.90;;;;;;5026921;28;20034;-61
2023/08/19 04:57:08;;;;;;;7.78;4.60;;;21.50;99.90;;;;;;5030239;28;20060;-61
2023/08/19 04:59:34;;;;;;;7.18;4.53;;;21.60;99.90;;;;;;5027717;28;20029;-62
2023/08/19 05:02:00;;;;;;;10.93;5.32;;;21.50;99.90;;;;;;5028405;28;20037;-61
2023/08/19 05:04:26;;;;;;;10.70;5.53;;;21.60;99.90;;;;;;5026586;28;20406;-62
2023/08/19 05:06:51;;;;;;;12.77;4.80;;;21.60;99.90;;;;;;5024844;28;20113;-62
2023/08/19 05:09:17;;;;;;;14.75;4.97;;;21.60;99.90;;;;;;5027050;28;20036;-62
2023/08/19 05:11:43;;;;;;;7.40;4.80;;;21.70;99.90;;;;;;5026775;28;20491;-62
2023/08/19 05:14:08;;;;;;;13.07;5.32;;;21.70;99.90;;;;;;5023838;28;20071;-62
2023/08/19 05:16:34;;;;;;;8.75;5.00;;;21.70;99.90;;;;;;5029104;28;20408;-62
2023/08/19 05:19:16;;;;;;;9.30;4.78;;;21.80;99.90;;;;;;5025988;28;20101;-62
2023/08/19 05:21:41;;;;;;;11.25;4.85;;;21.90;99.90;;;;;;5028061;28;20022;-61
2023/08/19 05:24:07;;;;;;;8.50;5.40;;;21.90;99.90;;;;;;5028202;28;20022;-62
2023/08/19 05:26:33;;;;;;;8.80;4.57;;;22.00;99.90;;;;;;5024731;28;20029;-62
2023/08/19 05:28:59;;;;;;;9.68;4.60;;;22.00;99.90;;;;;;5023643;28;20037;-62
2023/08/19 05:31:25;;;;;;;7.20;4.60;;;22.10;99.90;;;;;;5028966;28;20033;-62
2023/08/19 05:33:50;;;;;;;9.40;5.15;;;22.20;99.90;;;;;;5027303;28;20037;-62
2023/08/19 05:36:16;;;;;;;7.53;4.70;;;22.20;99.90;;;;;;5026727;28;20026;-62
2023/08/19 05:38:41;;;;;;;8.25;4.85;;;22.20;99.90;;;;;;5023212;28;20881;-62
2023/08/19 05:41:07;;;;;;;10.68;4.57;;;22.20;99.90;;;;;;5026199;28;20033;-62
2023/08/19 05:43:32;;;;;;;9.63;4.88;;;22.30;99.90;;;;;;5028843;28;20034;-62
2023/08/19 05:45:58;;;;;;;8.07;4.75;;;22.30;99.90;;;;;;5023308;28;20034;-62
2023/08/19 05:48:24;;;;;;;12.07;5.20;;;22.30;99.90;;;;;;5026251;28;20112;-62
2023/08/19 05:50:49;;;;;;;8.07;4.53;;;22.40;99.90;;;;;;5028534;28;20555;-62
2023/08/19 05:53:15;;;;;;;16.35;4.65;;;22.40;99.90;;;;;;5027174;28;20083;-61
2023/08/19 05:55:40;;;;;;;9.73;4.90;;;22.50;99.90;;;;;;5027884;28;20036;-61
2023/08/19 05:58:06;;;;;;;10.90;5.25;;;22.50;99.90;;;;;;5027304;28;20031;-61
2023/08/19 06:00:31;;;;;;;11.25;4.90;;;22.50;99.90;;;;;;5024905;28;20076;-61
2023/08/19 06:02:57;;;;;;;11.15;4.68;;;22.60;99.90;;;;;;5027502;28;20033;-61
2023/08/19 06:05:22;;;;;;;10.52;4.65;;;22.60;99.90;;;;;;5021839;28;20055;-61
2023/08/19 06:07:48;;;;;;;14.48;5.05;;;22.60;99.90;;;;;;5025106;28;20030;-62
2023/08/19 06:10:13;;;;;;;12.45;4.15;;;22.70;99.90;;;;;;5022637;28;20396;-61
2023/08/19 06:12:39;;;;;;;6.10;4.40;;;22.80;99.90;;;;;;5029670;28;20032;-61
2023/08/19 06:15:05;;;;;;;10.77;5.10;;;22.80;99.90;;;;;;5025577;28;20033;-61
2023/08/19 06:17:31;;;;;;;7.18;4.80;;;22.90;99.90;;;;;;5022106;28;20025;-61
2023/08/19 06:19:57;;;;;;;8.13;4.47;;;22.90;99.90;;;;;;5025869;28;20389;-61
2023/08/19 06:22:22;;;;;;;8.85;4.63;;;23.00;99.90;;;;;;5028179;28;20030;-61
2023/08/19 06:24:48;;;;;;;11.32;4.95;;;23.00;99.90;;;;;;5027084;28;20029;-61
2023/08/19 06:27:13;;;;;;;11.35;4.85;;;23.10;99.90;;;;;;5026487;28;20052;-61
2023/08/19 06:29:40;;;;;;;10.23;4.43;;;23.10;99.90;;;;;;5025726;28;20083;-61
2023/08/19 06:32:06;;;;;;;14.68;4.82;;;23.10;99.90;;;;;;5025353;28;20478;-59
2023/08/19 06:34:32;;;;;;;13.30;4.38;;;23.20;99.90;;;;;;5023874;28;20037;-61
2023/08/19 06:37:00;;;;;;;16.85;5.43;;;23.20;99.90;;;;;;5024486;28;20037;-60
2023/08/19 06:39:27;;;;;;;5.72;4.05;;;23.20;99.90;;;;;;5025106;28;20029;-61
2023/08/19 06:42:02;;;;;;;10.38;4.57;;;23.30;99.90;;;;;;5027796;28;20097;-61
2023/08/19 06:44:33;;;;;;;12.32;5.50;;;23.30;99.90;;;;;;5025801;28;20038;-62
2023/08/19 06:47:02;;;;;;;11.80;6.13;;;23.40;99.90;;;;;;5022947;28;20033;-62
2023/08/19 06:49:28;;;;;;;12.45;5.13;;;23.40;99.90;;;;;;5029378;28;20036;-62
2023/08/19 06:51:54;;;;;;;8.38;4.35;;;23.50;99.90;;;;;;5026770;28;20038;-60
2023/08/19 06:54:20;;;;;;;7.95;4.70;;;23.50;99.90;;;;;;5027608;28;20029;-62
2023/08/19 06:57:03;;;;;;;8.43;3.90;;;23.50;99.90;;;;;;5027241;28;20025;-62
2023/08/19 06:59:39;;;;;;;6.80;3.97;;;23.50;99.90;;;;;;5028168;28;20116;-62
2023/08/19 07:02:07;;;;;;;5.53;3.75;;;23.70;99.90;;;;;;5027149;28;20104;-61
2023/08/19 07:04:35;;;;;;;10.18;4.28;;;23.70;99.90;;;;;;5030386;28;20025;-60
2023/08/19 07:07:05;;;;;;;13.73;4.50;;;23.80;99.90;;;;;;5029397;28;20120;-62
2023/08/19 07:09:33;;;;;;;9.50;4.53;;;23.90;99.90;;;;;;5027963;28;20065;-61
2023/08/19 07:11:59;;;;;;;11.25;4.68;;;23.90;99.90;;;;;;5026754;28;20026;-62
2023/08/19 07:14:26;;;;;;;14.23;4.38;;;24.00;99.90;;;;;;5026748;28;20091;-61
2023/08/19 07:16:55;;;;;;;7.22;4.32;;;24.10;99.90;;;;;;5028579;28;20030;-61
2023/08/19 07:19:34;;;;;;;4.32;3.85;;;24.10;99.90;;;;;;5028714;28;20029;-60
2023/08/19 07:22:00;;;;;;;6.82;3.85;;;24.20;99.90;;;;;;5025658;28;20033;-62
2023/08/19 07:24:26;;;;;;;13.75;4.45;;;24.20;99.90;;;;;;5026631;28;20606;-62
2023/08/19 07:26:52;;;;;;;14.07;4.18;;;24.30;99.90;;;;;;5028145;28;20033;-61
2023/08/19 07:29:17;;;;;;;11.07;3.60;;;24.30;99.90;;;;;;5022700;28;20063;-62
2023/08/19 07:31:44;;;;;;;9.43;4.93;;;24.30;99.90;;;;;;5029045;28;20036;-62
2023/08/19 07:34:10;;;;;;;6.00;4.32;;;24.30;99.90;;;;;;5029979;28;20028;-62
2023/08/19 07:36:35;;;;;;;7.95;4.90;;;24.30;99.90;;;;;;5029202;28;20029;-62
2023/08/19 07:39:03;;;;;;;7.00;3.55;;;24.30;99.90;;;;;;5026237;28;20025;-63
2023/08/19 07:41:29;;;;;;;9.10;4.18;;;24.20;99.90;;;;;;5024629;28;20052;-62
2023/08/19 07:43:55;;;;;;;9.73;4.00;;;24.30;99.90;;;;;;5027136;28;20033;-60
2023/08/19 07:46:20;;;;;;;11.52;4.15;;;24.40;99.90;;;;;;5025744;28;20038;-62
2023/08/19 07:48:46;;;;;;;11.82;4.30;;;24.40;99.90;;;;;;5029758;28;20501;-62
2023/08/19 07:51:12;;;;;;;11.40;4.32;;;24.60;99.90;;;;;;5037458;28;20051;-61
2023/08/19 07:53:38;;;;;;;11.07;4.80;;;24.80;99.90;;;;;;5032594;28;20108;-62
2023/08/19 07:56:05;;;;;;;11.00;4.20;;;24.90;99.90;;;;;;5027372;28;20097;-62
2023/08/19 07:58:31;;;;;;;7.78;4.05;;;25.00;99.90;;;;;;5026123;28;20033;-62
2023/08/19 08:00:57;;;;;;;5.50;3.70;;;25.20;99.90;;;;;;5028769;28;20065;-62
2023/08/19 08:03:22;;;;;;;6.13;4.32;;;25.30;99.90;;;;;;5031663;28;20115;-63
2023/08/19 08:05:48;;;;;;;12.25;4.40;;;25.50;99.90;;;;;;5030228;28;20035;-62
2023/08/19 08:08:13;;;;;;;8.73;3.80;;;25.70;99.90;;;;;;5030239;28;20045;-62
2023/08/19 08:10:40;;;;;;;7.57;4.18;;;25.80;99.90;;;;;;5027009;28;20037;-62
2023/08/19 08:13:06;;;;;;;7.15;3.95;;;25.80;99.90;;;;;;5021543;28;20018;-63
2023/08/19 08:15:31;;;;;;;12.40;4.30;;;25.80;99.90;;;;;;5022912;28;20036;-57
2023/08/19 08:17:57;;;;;;;7.40;4.07;;;25.80;99.90;;;;;;5032764;28;20071;-55
2023/08/19 08:20:23;;;;;;;4.88;3.97;;;25.80;99.90;;;;;;5027051;28;20060;-55
2023/08/19 08:22:48;;;;;;;10.18;4.28;;;25.80;99.90;;;;;;5025091;28;20033;-57
2023/08/19 08:25:14;;;;;;;7.13;3.53;;;25.80;99.90;;;;;;5028419;28;20037;-58
2023/08/19 08:27:40;;;;;;;8.05;4.25;;;25.70;99.90;;;;;;5026459;28;20039;-56
2023/08/19 08:30:06;;;;;;;7.53;3.92;;;25.70;99.90;;;;;;5027889;28;20035;-58
2023/08/19 08:32:32;;;;;;;8.85;4.55;;;25.70;99.90;;;;;;5029218;28;20057;-54
2023/08/19 08:34:58;;;;;;;13.77;4.32;;;25.80;99.90;;;;;;5029937;28;20075;-54
2023/08/19 08:37:24;;;;;;;8.65;4.22;;;25.80;99.90;;;;;;5030907;28;20610;-58
2023/08/19 08:39:50;;;;;;;9.07;4.45;;;25.90;99.90;;;;;;5027662;28;20022;-57
2023/08/19 08:42:17;;;;;;;13.10;5.03;;;26.00;99.90;;;;;;5041337;28;20060;-54
2023/08/19 08:44:46;;;;;;;10.18;4.70;;;26.00;99.90;;;;;;5028213;28;20045;-54
2023/08/19 08:47:14;;;;;;;7.70;4.35;;;26.00;99.90;;;;;;5027843;28;20037;-55
2023/08/19 08:49:41;;;;;;;8.73;4.97;;;26.10;99.90;;;;;;5027109;28;20029;-56
2023/08/19 08:52:07;;;;;;;8.02;4.50;;;26.20;99.90;;;;;;5025374;28;20041;-56
2023/08/19 08:54:33;;;;;;;6.93;4.25;;;26.20;99.90;;;;;;5023363;28;20021;-58
2023/08/19 08:57:01;;;;;;;9.15;4.43;;;26.30;99.90;;;;;;5026624;28;20515;-57
2023/08/19 08:59:27;;;;;;;9.73;4.80;;;26.40;99.90;;;;;;5022661;28;20069;-53
2023/08/19 09:01:54;;;;;;;5.30;3.95;;;26.50;99.90;;;;;;5025870;28;20056;-56
2023/08/19 09:04:22;;;;;;;14.40;4.55;;;26.60;99.90;;;;;;5026611;28;20592;-56
2023/08/19 09:06:53;;;;;;;13.68;4.55;;;26.50;99.90;;;;;;5023511;28;20134;-53
2023/08/19 09:09:21;;;;;;;7.45;4.47;;;26.60;99.90;;;;;;5028123;28;20125;-55
2023/08/19 09:11:51;;;;;;;8.38;4.53;;;26.70;99.90;;;;;;5025042;28;20370;-57
2023/08/19 09:14:34;;;;;;;10.43;4.05;;;26.60;99.90;;;;;;5026953;28;20181;-52
2023/08/19 09:17:00;;;;;;;11.25;4.13;;;26.70;99.90;;;;;;5023898;28;20456;-57
2023/08/19 09:19:25;;;;;;;12.90;3.95;;;26.90;99.90;;;;;;5023130;28;20021;-56
2023/08/19 09:21:51;;;;;;;9.18;4.30;;;27.00;99.90;;;;;;5024172;28;20060;-59
2023/08/19 09:24:17;;;;;;;13.07;4.65;;;27.30;99.90;;;;;;5023811;28;20034;-57
2023/08/19 09:26:44;;;;;;;6.85;3.60;;;27.40;99.90;;;;;;5027788;28;20061;-56
2023/08/19 09:29:09;;;;;;;8.38;4.13;;;27.60;99.90;;;;;;5024803;28;20032;-57
2023/08/19 09:31:38;;;;;;;10.98;4.82;;;27.70;99.90;;;;;;5025535;28;20033;-57
2023/08/19 09:34:04;;;;;;;12.18;4.55;;;27.80;99.90;;;;;;5022725;28;20018;-58
2023/08/19 09:36:30;;;;;;;7.57;4.28;;;28.00;99.90;;;;;;5024960;28;20048;-57
2023/08/19 09:38:57;;;;;;;15.35;4.75;;;28.10;99.90;;;;;;5024173;28;20584;-55
2023/08/19 09:41:27;;;;;;;13.73;4.05;;;28.20;99.90;;;;;;5021738;28;20124;-56
2023/08/19 09:43:54;;;;;;;7.38;3.88;;;28.20;99.90;;;;;;5020756;28;20029;-56
2023/08/19 09:46:20;;;;;;;9.32;3.97;;;28.40;99.90;;;;;;5026404;28;20120;-58
2023/08/19 09:48:57;;;;;;;8.18;4.63;;;28.60;99.90;;;;;;5024788;28;20378;-56
2023/08/19 09:51:24;;;;;;;5.05;4.20;;;28.80;99.90;;;;;;5022141;28;20032;-57
2023/08/19 09:53:49;;;;;;;15.07;4.45;;;28.80;99.90;;;;;;5023053;28;20037;-58
2023/08/19 09:56:24;;;;;;;12.88;4.28;;;28.70;99.90;;;;;;5028134;28;20024;-58
2023/08/19 09:58:51;;;;;;;7.90;4.60;;;28.80;99.90;;;;;;5025387;28;20113;-57
2023/08/19 10:01:17;;;;;;;8.07;3.88;;;28.70;99.90;;;;;;5026455;28;20543;-57
2023/08/19 10:03:43;;;;;;;11.30;5.07;;;28.80;99.90;;;;;;5025699;28;20030;-57
2023/08/19 10:06:10;;;;;;;12.43;4.38;;;29.00;99.90;;;;;;5024900;28;20033;-56
2023/08/19 10:08:42;;;;;;;12.60;5.00;;;29.30;99.90;;;;;;5020456;28;20041;-54
2023/08/19 10:11:09;;;;;;;7.25;4.72;;;29.40;99.90;;;;;;5024684;28;20109;-54
2023/08/19 10:13:37;;;;;;;10.65;4.10;;;29.50;99.90;;;;;;5025377;28;20028;-55
2023/08/19 10:16:04;;;;;;;17.52;4.82;;;29.40;99.90;;;;;;5025231;28;20498;-55
2023/08/19 10:18:35;;;;;;;7.38;4.43;;;29.70;99.90;;;;;;5021546;28;20022;-56
2023/08/19 10:21:04;;;;;;;14.82;4.50;;;30.00;99.90;;;;;;5023374;28;20034;-58
2023/08/19 10:23:31;;;;;;;6.13;3.78;;;30.10;99.90;;;;;;5027877;28;20504;-54
2023/08/19 10:25:57;;;;;;;13.45;4.95;;;30.00;99.90;;;;;;5024708;28;20049;-56
2023/08/19 10:28:25;;;;;;;10.82;4.68;;;29.70;99.90;;;;;;5027570;28;20148;-56
2023/08/19 10:31:11;;;;;;;9.93;4.97;;;29.90;99.90;;;;;;5030441;28;20038;-57
2023/08/19 10:33:45;;;;;;;13.90;4.93;;;30.20;99.90;;;;;;5028651;28;20501;-56
2023/08/19 10:36:18;;;;;;;10.80;4.95;;;30.40;99.90;;;;;;5028380;28;20036;-56
2023/08/19 10:38:46;;;;;;;7.65;5.00;;;30.90;99.90;;;;;;5030490;28;20021;-55
2023/08/19 10:41:30;;;;;;;10.82;4.63;;;31.10;99.90;;;;;;5024310;28;20025;-56
2023/08/19 10:44:14;;;;;;;9.55;4.07;;;31.20;99.90;;;;;;5028088;28;20112;-56
2023/08/19 10:46:42;;;;;;;10.32;5.05;;;31.50;99.90;;;;;;5027210;28;20037;-53
2023/08/19 10:49:12;;;;;;;16.90;5.30;;;31.60;99.90;;;;;;5027708;28;20511;-53
2023/08/19 10:51:59;;;;;;;9.88;4.95;;;31.40;99.90;;;;;;5028457;28;20034;-56
2023/08/19 10:54:45;;;;;;;13.07;5.50;;;30.60;99.90;;;;;;5029911;28;20021;-51
2023/08/19 10:57:12;;;;;;;11.43;4.75;;;30.70;99.90;;;;;;5028215;28;20034;-55
2023/08/19 10:59:40;;;;;;;14.43;6.10;;;30.80;99.90;;;;;;5030105;28;20033;-57
2023/08/19 11:02:08;;;;;;;10.90;5.70;;;30.50;99.90;;;;;;5031517;28;20033;-58
2023/08/19 11:04:36;;;;;;;9.25;5.10;;;30.20;99.90;;;;;;5038626;28;20029;-57
2023/08/19 11:07:04;;;;;;;11.48;5.53;;;30.30;99.90;;;;;;5039692;28;20365;-59
2023/08/19 11:09:30;;;;;;;12.07;5.18;;;29.90;99.90;;;;;;5030489;28;20409;-56
2023/08/19 11:11:58;;;;;;;10.88;4.60;;;29.90;99.90;;;;;;5030848;28;20072;-56
2023/08/19 11:14:24;;;;;;;10.18;5.30;;;29.70;99.90;;;;;;5032083;28;20595;-58
2023/08/19 11:16:51;;;;;;;9.30;5.18;;;29.60;99.90;;;;;;5025494;28;20552;-53
2023/08/19 11:19:17;;;;;;;8.32;4.65;;;29.80;99.90;;;;;;5024819;28;20021;-53
2023/08/19 11:21:44;;;;;;;11.05;4.93;;;29.80;99.90;;;;;;5032499;28;20100;-54
2023/08/19 11:24:10;;;;;;;9.75;5.60;;;29.70;99.90;;;;;;5025107;28;20017;-56
2023/08/19 11:26:36;;;;;;;16.35;5.90;;;29.70;99.90;;;;;;5026779;28;20458;-57
2023/08/19 11:29:05;;;;;;;9.50;6.07;;;29.60;99.90;;;;;;5026781;28;20100;-55
2023/08/19 11:31:31;;;;;;;8.25;5.88;;;29.60;99.90;;;;;;5028214;28;20040;-56
2023/08/19 11:33:57;;;;;;;11.00;5.97;;;29.60;99.90;;;;;;5027345;28;20108;-58
2023/08/19 11:36:26;;;;;;;15.45;6.90;;;29.50;99.90;;;;;;5028036;28;20117;-55
2023/08/19 11:38:55;;;;;;;9.85;6.63;;;29.50;99.90;;;;;;5028473;28;20101;-53
2023/08/19 11:41:21;;;;;;;13.27;6.25;;;29.40;99.90;;;;;;5026524;28;20072;-57
2023/08/19 11:43:47;;;;;;;10.63;5.50;;;29.50;99.90;;;;;;5021475;28;20054;-54
2023/08/19 11:46:12;;;;;;;9.80;5.15;;;29.50;99.90;;;;;;5030510;28;20040;-58
2023/08/19 11:48:39;;;;;;;9.82;5.80;;;29.50;99.90;;;;;;5026036;28;20084;-55
2023/08/19 11:51:10;;;;;;;14.10;6.15;;;29.50;99.90;;;;;;5046046;28;20540;-60
2023/08/19 11:53:36;;;;;;;12.20;6.28;;;29.20;99.90;;;;;;5023708;28;20022;-55
2023/08/19 11:56:03;;;;;;;21.85;7.38;;;29.30;99.90;;;;;;5031013;28;20018;-54
2023/08/19 11:58:38;;;;;;;12.18;6.90;;;29.40;99.90;;;;;;5028440;28;20032;-54
2023/08/19 12:01:04;;;;;;;17.48;6.70;;;29.60;99.90;;;;;;5031109;28;20112;-56
2023/08/19 12:03:30;;;;;;;15.32;5.85;;;29.60;99.90;;;;;;5029991;28;20132;-54
2023/08/19 12:05:57;;;;;;;13.07;6.55;;;29.80;99.90;;;;;;5032222;28;20030;-54
2023/08/19 12:08:32;;;;;;;9.90;6.50;;;29.90;99.90;;;;;;5032421;28;20096;-56
2023/08/19 12:10:59;;;;;;;11.40;6.97;;;30.00;99.90;;;;;;5024064;28;20030;-54
2023/08/19 12:13:27;;;;;;;10.15;6.68;;;30.30;99.90;;;;;;5032432;28;20053;-56
2023/08/19 12:15:53;;;;;;;11.77;6.68;;;30.90;99.90;;;;;;5028492;28;20459;-57
2023/08/19 12:18:19;;;;;;;14.90;6.72;;;31.10;99.90;;;;;;5030613;28;20030;-57
2023/08/19 12:20:46;;;;;;;11.15;7.25;;;31.30;99.90;;;;;;5030632;28;20034;-57
2023/08/19 12:23:11;;;;;;;14.30;6.68;;;31.40;99.90;;;;;;5032547;28;20029;-53
2023/08/19 12:25:53;;;;;;;15.57;7.25;;;31.30;99.90;;;;;;5024519;28;20030;-55
2023/08/19 12:28:20;;;;;;;14.30;6.90;;;30.90;99.90;;;;;;5030336;28;20556;-57
2023/08/19 12:30:47;;;;;;;13.23;7.55;;;30.60;99.90;;;;;;5028041;28;20108;-56
2023/08/19 12:33:16;;;;;;;19.98;8.02;;;30.40;99.90;;;;;;5025626;28;20026;-55
2023/08/19 12:35:44;;;;;;;16.00;7.80;;;30.20;99.90;;;;;;5028931;28;20041;-55
2023/08/19 12:38:11;;;;;;;14.02;7.57;;;29.80;99.90;;;;;;5030845;28;20024;-55
2023/08/19 12:40:37;;;;;;;12.23;8.02;;;29.90;99.90;;;;;;5027091;28;20087;-58